createdAt,value
2023-02-25T00:02:13.401Z,98827.78
2023-02-25T00:05:05.230Z,98833.59
2023-02-25T00:07:52.093Z,98825.38
2023-02-25T00:10:38.621Z,98826.56
2023-02-25T00:13:25.399Z,98829.19
2023-02-25T00:16:12.888Z,98819.09
2023-02-25T00:19:00.005Z,98772.56
2023-02-25T00:21:48.023Z,98822.91
2023-02-25T00:24:34.775Z,98825.91
2023-02-25T00:27:21.629Z,98812.81
2023-02-25T00:30:10.950Z,98813.28
2023-02-25T00:32:57.473Z,98806.00
2023-02-25T00:35:44.375Z,98812.41
2023-02-25T00:38:32.363Z,98807.84
2023-02-25T00:41:21.076Z,98810.34
2023-02-25T00:44:08.345Z,98814.47
2023-02-25T00:46:55.123Z,98806.00
2023-02-25T00:49:41.945Z,98809.47
2023-02-25T00:52:28.593Z,98807.22
2023-02-25T00:55:17.204Z,98803.63
2023-02-25T00:58:04.308Z,98800.38
2023-02-25T01:00:52.020Z,98802.59
2023-02-25T01:03:38.806Z,98797.19
2023-02-25T01:06:26.783Z,98791.09
2023-02-25T01:09:14.966Z,98789.53
2023-02-25T01:12:03.330Z,98792.94
2023-02-25T01:14:51.135Z,98796.28
2023-02-25T01:17:37.903Z,98790.94
2023-02-25T01:20:24.602Z,98781.88
2023-02-25T01:23:11.442Z,98788.69
2023-02-25T01:25:58.221Z,98780.09
2023-02-25T01:28:46.287Z,98791.25
2023-02-25T01:31:33.276Z,98786.59
2023-02-25T01:34:21.038Z,98786.28
2023-02-25T01:37:08.017Z,98779.00
2023-02-25T01:39:58.639Z,98780.50
2023-02-25T01:42:45.690Z,98771.03
2023-02-25T01:45:34.168Z,98774.31
2023-02-25T01:48:24.100Z,98776.28
2023-02-25T01:51:13.134Z,98776.09
2023-02-25T01:54:02.834Z,98769.28
2023-02-25T01:56:53.557Z,98750.44
2023-02-25T01:59:42.748Z,98778.19
2023-02-25T02:02:38.351Z,98777.28
2023-02-25T02:05:38.019Z,98767.44
2023-02-25T02:08:26.443Z,98776.69
2023-02-25T02:11:16.732Z,98780.63
2023-02-25T02:14:05.532Z,98788.44
2023-02-25T02:17:06.695Z,98781.28
2023-02-25T02:20:14.271Z,98785.09
2023-02-25T02:23:23.613Z,98776.41
2023-02-25T02:26:47.746Z,98784.09
2023-02-25T02:30:10.447Z,98782.91
2023-02-25T02:33:10.236Z,98778.53
2023-02-25T02:36:05.198Z,98785.81
2023-02-25T02:38:56.190Z,98785.34
2023-02-25T02:41:47.598Z,98783.97
2023-02-25T02:44:43.127Z,98789.56
2023-02-25T02:47:33.360Z,98783.19
2023-02-25T02:50:31.301Z,98777.28
2023-02-25T02:53:23.359Z,98788.56
2023-02-25T02:56:15.146Z,98784.75
2023-02-25T02:59:07.742Z,98793.31
2023-02-25T03:01:59.122Z,98793.88
2023-02-25T03:04:49.962Z,98799.13
2023-02-25T03:07:44.505Z,98805.72
2023-02-25T03:10:31.355Z,98814.16
2023-02-25T03:13:18.017Z,98826.69
2023-02-25T03:16:08.932Z,98824.47
2023-02-25T03:19:00.521Z,98833.28
2023-02-25T03:21:51.752Z,98835.69
2023-02-25T03:24:45.605Z,98845.03
2023-02-25T03:27:36.527Z,98845.03
2023-02-25T03:30:31.968Z,98846.53
2023-02-25T03:33:25.746Z,98857.88
2023-02-25T03:36:18.684Z,98866.28
2023-02-25T03:39:10.840Z,98861.72
2023-02-25T03:42:03.805Z,98856.41
2023-02-25T03:44:55.147Z,98874.59
2023-02-25T03:47:44.001Z,98871.72
2023-02-25T03:50:34.685Z,98880.97
2023-02-25T03:53:24.986Z,98879.31
2023-02-25T03:56:18.532Z,98872.03
2023-02-25T03:59:07.266Z,98883.56
2023-02-25T04:01:55.944Z,98891.56
2023-02-25T04:04:42.828Z,98891.38
2023-02-25T04:07:29.782Z,98890.00
2023-02-25T04:10:18.292Z,98901.44
2023-02-25T04:13:06.046Z,98902.88
2023-02-25T04:15:54.228Z,98902.56
2023-02-25T04:18:41.480Z,98901.72
2023-02-25T04:21:31.116Z,98908.78
2023-02-25T04:24:17.886Z,98927.44
2023-02-25T04:27:04.548Z,98918.94
2023-02-25T04:29:51.547Z,98926.81
2023-02-25T04:32:39.420Z,98933.97
2023-02-25T04:35:25.955Z,98936.81
2023-02-25T04:38:12.719Z,98942.56
2023-02-25T04:40:59.356Z,98935.78
2023-02-25T04:43:46.520Z,98942.31
2023-02-25T04:46:33.900Z,98918.88
2023-02-25T04:49:23.786Z,98957.16
2023-02-25T04:52:10.202Z,98952.13
2023-02-25T04:54:57.097Z,98955.06
2023-02-25T04:57:43.975Z,98947.50
2023-02-25T05:00:30.685Z,98958.53
2023-02-25T05:03:17.362Z,98962.53
2023-02-25T05:06:07.128Z,98963.91
2023-02-25T05:08:53.822Z,98968.56
2023-02-25T05:11:40.480Z,98968.63
2023-02-25T05:14:27.327Z,98964.13
2023-02-25T05:17:15.920Z,98976.84
2023-02-25T05:20:02.370Z,98966.75
2023-02-25T05:22:50.458Z,98979.72
2023-02-25T05:25:41.294Z,98980.72
2023-02-25T05:28:28.255Z,98982.66
2023-02-25T05:31:15.077Z,98979.34
2023-02-25T05:34:01.594Z,98988.25
2023-02-25T05:36:48.310Z,98976.56
2023-02-25T05:39:36.487Z,98998.00
2023-02-25T05:42:23.137Z,99000.22
2023-02-25T05:45:11.415Z,99006.50
2023-02-25T05:47:58.254Z,99011.03
2023-02-25T05:50:44.995Z,99026.41
2023-02-25T05:53:31.982Z,99011.41
2023-02-25T05:56:22.764Z,99045.97
2023-02-25T05:59:09.615Z,99055.91
2023-02-25T06:01:56.296Z,99056.63
2023-02-25T06:04:43.015Z,99054.81
2023-02-25T06:07:30.984Z,99058.03
2023-02-25T06:10:18.043Z,99068.53
2023-02-25T06:13:06.449Z,99003.22
2023-02-25T06:15:53.958Z,99080.66
2023-02-25T06:18:40.542Z,99092.94
2023-02-25T06:21:27.982Z,99099.09
2023-02-25T06:24:15.624Z,99101.03
2023-02-25T06:27:02.541Z,99107.41
2023-02-25T06:29:50.647Z,99109.84
2023-02-25T06:32:37.753Z,99111.72
2023-02-25T06:35:24.799Z,99083.94
2023-02-25T06:38:11.652Z,99126.66
2023-02-25T06:40:58.302Z,99129.06
2023-02-25T06:43:45.335Z,99136.72
2023-02-25T06:46:33.566Z,99153.06
2023-02-25T06:49:20.441Z,99152.25
2023-02-25T06:52:07.017Z,99149.09
2023-02-25T06:54:54.259Z,99159.28
2023-02-25T06:57:41.026Z,99163.97
2023-02-25T07:00:27.847Z,99169.13
2023-02-25T07:03:17.287Z,99171.19
2023-02-25T07:06:04.050Z,99128.56
2023-02-25T07:08:50.840Z,99181.38
2023-02-25T07:11:37.419Z,99184.41
2023-02-25T07:14:24.174Z,99198.56
2023-02-25T07:17:10.956Z,99199.75
2023-02-25T07:19:59.188Z,99195.66
2023-02-25T07:22:46.142Z,99205.28
2023-02-25T07:25:33.164Z,99188.81
2023-02-25T07:28:19.670Z,99211.81
2023-02-25T07:31:11.777Z,99224.84
2023-02-25T07:34:03.579Z,99230.84
2023-02-25T07:36:51.348Z,99238.72
2023-02-25T07:39:38.564Z,99239.03
2023-02-25T07:42:25.283Z,99245.38
2023-02-25T07:45:17.868Z,99227.03
2023-02-25T07:48:04.284Z,99250.56
2023-02-25T07:50:51.097Z,99267.06
2023-02-25T07:53:39.524Z,99283.34
2023-02-25T07:56:28.373Z,99279.59
2023-02-25T07:59:15.060Z,99288.75
2023-02-25T08:02:01.848Z,99283.31
2023-02-25T08:04:48.722Z,99288.75
2023-02-25T08:07:35.455Z,99294.41
2023-02-25T08:10:23.699Z,99297.56
2023-02-25T08:13:10.587Z,99299.41
2023-02-25T08:15:57.387Z,99301.34
2023-02-25T08:18:44.502Z,99306.16
2023-02-25T08:21:31.353Z,99312.19
2023-02-25T08:24:20.698Z,99317.44
2023-02-25T08:27:09.766Z,99319.53
2023-02-25T08:29:57.111Z,99327.31
2023-02-25T08:32:43.935Z,99330.50
2023-02-25T08:35:30.527Z,99335.94
2023-02-25T08:38:18.297Z,99337.53
2023-02-25T08:41:06.335Z,99353.88
2023-02-25T08:43:55.777Z,99352.84
2023-02-25T08:46:42.446Z,99358.91
2023-02-25T08:49:29.222Z,99359.28
2023-02-25T08:52:16.053Z,99348.16
2023-02-25T08:55:03.298Z,99356.13
2023-02-25T08:57:50.061Z,99366.81
2023-02-25T09:00:39.278Z,99381.03
2023-02-25T09:03:25.970Z,99380.56
2023-02-25T09:06:12.781Z,99391.19
2023-02-25T09:08:59.766Z,99392.88
2023-02-25T09:11:48.149Z,99401.50
2023-02-25T09:14:35.169Z,99403.47
2023-02-25T09:17:23.217Z,99408.34
2023-02-25T09:20:11.977Z,99417.16
2023-02-25T09:22:59.853Z,99424.66
2023-02-25T09:25:46.389Z,99430.72
2023-02-25T09:28:33.236Z,99432.34
2023-02-25T09:31:20.195Z,99439.84
2023-02-25T09:34:13.682Z,99440.22
2023-02-25T09:37:00.207Z,99447.19
2023-02-25T09:39:47.084Z,99447.72
2023-02-25T09:42:52.451Z,99394.59
2023-02-25T09:45:39.138Z,99457.88
2023-02-25T09:48:30.472Z,99454.25
2023-02-25T09:51:22.618Z,99472.34
2023-02-25T09:54:19.849Z,99483.09
2023-02-25T09:57:08.646Z,99481.34
2023-02-25T09:59:55.380Z,99496.19
2023-02-25T10:02:50.153Z,99485.59
2023-02-25T10:05:44.548Z,99504.00
2023-02-25T10:08:39.023Z,99501.16
2023-02-25T10:11:39.158Z,99515.28
2023-02-25T10:14:48.661Z,99517.25
2023-02-25T10:17:44.474Z,99525.47
2023-02-25T10:20:58.418Z,99533.72
2023-02-25T10:24:00.195Z,99546.03
2023-02-25T10:26:50.702Z,99539.16
2023-02-25T10:29:41.928Z,99562.91
2023-02-25T10:32:32.481Z,99542.84
2023-02-25T10:35:23.115Z,99559.13
2023-02-25T10:38:11.028Z,99566.34
2023-02-25T10:41:00.259Z,99554.56
2023-02-25T10:43:47.268Z,99564.75
2023-02-25T10:46:40.613Z,99524.34
2023-02-25T10:49:30.265Z,99564.50
2023-02-25T10:52:18.870Z,99575.38
2023-02-25T10:55:05.733Z,99583.09
2023-02-25T10:57:53.662Z,99585.69
2023-02-25T11:00:44.426Z,99579.00
2023-02-25T11:03:35.016Z,99601.81
2023-02-25T11:06:26.819Z,99595.25
2023-02-25T11:09:30.581Z,99601.88
2023-02-25T11:12:20.454Z,99601.84
2023-02-25T11:15:43.046Z,99605.50
2023-02-25T11:18:32.825Z,99607.91
2023-02-25T11:21:31.237Z,99591.06
2023-02-25T11:24:20.711Z,99610.81
2023-02-25T11:27:08.976Z,99627.03
2023-02-25T11:30:03.778Z,99626.41
2023-02-25T11:32:56.121Z,99625.91
2023-02-25T11:35:42.591Z,99626.94
2023-02-25T11:38:33.227Z,99635.84
2023-02-25T11:41:23.421Z,99636.19
2023-02-25T11:44:20.471Z,99642.75
2023-02-25T11:47:16.052Z,99643.94
2023-02-25T11:50:18.971Z,99658.59
2023-02-25T11:53:17.310Z,99658.84
2023-02-25T11:56:13.257Z,99654.47
2023-02-25T11:59:13.517Z,99672.28
2023-02-25T12:02:21.350Z,99676.09
2023-02-25T12:05:34.345Z,99667.84
2023-02-25T12:08:50.189Z,99684.13
2023-02-25T12:12:13.884Z,99694.88
2023-02-25T12:15:27.109Z,99688.13
2023-02-25T12:18:46.122Z,99706.16
2023-02-25T12:22:13.106Z,99695.31
2023-02-25T12:25:20.807Z,99704.03
2023-02-25T12:28:45.217Z,99715.34
2023-02-25T12:32:09.571Z,99723.78
2023-02-25T12:35:23.106Z,99723.75
2023-02-25T12:38:43.022Z,99727.25
2023-02-25T12:41:49.289Z,99732.41
2023-02-25T12:45:22.137Z,99745.22
2023-02-25T12:48:45.309Z,99757.94
2023-02-25T12:52:03.323Z,99752.56
2023-02-25T12:55:17.415Z,99760.13
2023-02-25T12:58:27.796Z,99774.97
2023-02-25T13:01:28.332Z,99782.53
2023-02-25T13:04:44.039Z,99779.00
2023-02-25T13:07:45.210Z,99791.38
2023-02-25T13:10:55.228Z,99791.59
2023-02-25T13:14:02.877Z,99795.53
2023-02-25T13:17:06.669Z,99795.75
2023-02-25T13:20:18.751Z,99807.09
2023-02-25T13:23:21.174Z,99809.41
2023-02-25T13:26:27.604Z,99814.31
2023-02-25T13:29:32.928Z,99819.31
2023-02-25T13:32:29.957Z,99821.88
2023-02-25T13:35:27.061Z,99830.38
2023-02-25T13:38:28.781Z,99818.88
2023-02-25T13:41:43.333Z,99834.47
2023-02-25T13:44:43.149Z,99837.91
2023-02-25T13:47:44.938Z,99850.25
2023-02-25T13:50:51.510Z,99851.16
2023-02-25T13:53:54.334Z,99859.31
2023-02-25T13:56:57.543Z,99863.78
2023-02-25T14:00:17.623Z,99862.16
2023-02-25T14:03:49.195Z,99865.56
2023-02-25T14:06:48.944Z,99875.03
2023-02-25T14:09:44.285Z,99877.34
2023-02-25T14:12:47.545Z,99883.56
2023-02-25T14:15:47.826Z,99888.78
2023-02-25T14:18:48.941Z,99886.16
2023-02-25T14:21:54.246Z,99902.72
2023-02-25T14:24:48.403Z,99905.78
2023-02-25T14:27:46.464Z,99913.91
2023-02-25T14:30:42.469Z,99921.78
2023-02-25T14:33:53.145Z,99884.31
2023-02-25T14:37:06.298Z,99926.09
2023-02-25T14:40:08.450Z,99925.81
2023-02-25T14:43:28.675Z,99933.19
2023-02-25T14:46:33.242Z,99938.34
2023-02-25T14:49:26.801Z,99942.06
2023-02-25T14:52:40.758Z,99948.84
2023-02-25T14:55:53.788Z,99952.84
2023-02-25T14:58:59.525Z,99954.47
2023-02-25T15:02:11.579Z,99965.03
2023-02-25T15:05:23.200Z,99976.06
2023-02-25T15:08:48.495Z,99978.97
2023-02-25T15:11:52.040Z,99982.09
2023-02-25T15:15:14.507Z,99978.44
2023-02-25T15:18:43.669Z,99989.59
2023-02-25T15:21:42.602Z,99998.16
2023-02-25T15:24:40.265Z,100010.50
2023-02-25T15:27:49.425Z,100013.50
2023-02-25T15:31:39.009Z,100019.53
2023-02-25T15:34:36.197Z,100024.16
2023-02-25T15:37:32.762Z,100021.31
2023-02-25T15:40:46.743Z,100026.91
2023-02-25T15:43:44.882Z,100037.84
2023-02-25T15:46:45.574Z,100035.16
2023-02-25T15:49:35.927Z,100048.25
2023-02-25T15:52:57.832Z,100049.88
2023-02-25T15:55:45.334Z,100059.75
2023-02-25T15:58:53.021Z,100066.66
2023-02-25T16:01:42.930Z,100071.34
2023-02-25T16:04:50.373Z,100076.50
2023-02-25T16:07:40.120Z,100082.03
2023-02-25T16:10:31.580Z,100073.84
2023-02-25T16:13:28.229Z,100089.56
2023-02-25T16:16:17.519Z,100101.13
2023-02-25T16:19:07.009Z,100116.91
2023-02-25T16:21:58.756Z,100117.13
2023-02-25T16:24:49.541Z,100131.97
2023-02-25T16:27:49.560Z,100106.91
2023-02-25T16:30:42.260Z,100133.56
2023-02-25T16:33:35.446Z,100142.78
2023-02-25T16:36:38.134Z,100149.50
2023-02-25T16:39:29.194Z,100151.38
2023-02-25T16:42:18.403Z,100163.59
2023-02-25T16:45:06.989Z,100172.50
2023-02-25T16:47:58.038Z,100176.09
2023-02-25T16:50:48.506Z,100181.47
2023-02-25T16:53:35.176Z,100185.22
2023-02-25T16:56:26.730Z,100190.22
2023-02-25T16:59:19.745Z,100192.84
2023-02-25T17:02:24.393Z,100195.31
2023-02-25T17:05:23.692Z,100197.13
2023-02-25T17:08:16.655Z,100206.94
2023-02-25T17:11:06.466Z,100207.56
2023-02-25T17:13:56.969Z,100216.19
2023-02-25T17:16:44.340Z,100214.50
2023-02-25T17:19:32.046Z,100223.34
2023-02-25T17:22:22.580Z,100232.16
2023-02-25T17:25:16.053Z,100241.47
2023-02-25T17:28:02.855Z,100249.13
2023-02-25T17:30:52.236Z,100254.44
2023-02-25T17:33:48.328Z,100264.00
2023-02-25T17:36:39.349Z,100262.50
2023-02-25T17:39:29.389Z,100264.88
2023-02-25T17:42:31.237Z,100272.59
2023-02-25T17:45:42.069Z,100275.25
2023-02-25T17:48:33.421Z,100276.16
2023-02-25T17:51:28.265Z,100268.47
2023-02-25T17:54:18.376Z,100275.72
2023-02-25T17:57:10.010Z,100280.66
2023-02-25T18:00:00.482Z,100286.13
2023-02-25T18:02:47.425Z,100289.38
2023-02-25T18:05:49.589Z,100283.34
2023-02-25T18:08:52.602Z,100292.88
2023-02-25T18:11:41.527Z,100293.59
2023-02-25T18:14:34.386Z,100292.47
2023-02-25T18:17:26.494Z,100299.28
2023-02-25T18:20:30.803Z,100308.19
2023-02-25T18:23:21.796Z,100307.47
2023-02-25T18:26:13.280Z,100319.66
2023-02-25T18:28:59.715Z,100318.88
2023-02-25T18:31:46.852Z,100325.09
2023-02-25T18:34:33.324Z,100330.19
2023-02-25T18:37:20.568Z,100332.25
2023-02-25T18:40:15.857Z,100327.88
2023-02-25T18:43:02.842Z,100338.34
2023-02-25T18:45:49.889Z,100334.97
2023-02-25T18:48:37.229Z,100339.31
2023-02-25T18:51:23.981Z,100345.34
2023-02-25T18:54:16.221Z,100348.81
2023-02-25T18:57:04.393Z,100353.09
2023-02-25T18:59:51.144Z,100357.66
2023-02-25T19:02:45.208Z,100362.09
2023-02-25T19:05:32.104Z,100340.38
2023-02-25T19:08:19.075Z,100368.16
2023-02-25T19:11:06.153Z,100375.91
2023-02-25T19:13:54.778Z,100379.41
2023-02-25T19:16:41.421Z,100380.34
2023-02-25T19:19:28.184Z,100384.66
2023-02-25T19:22:16.150Z,100382.84
2023-02-25T19:25:02.586Z,100381.97
2023-02-25T19:27:49.626Z,100385.47
2023-02-25T19:30:40.717Z,100389.00
2023-02-25T19:33:27.533Z,100394.03
2023-02-25T19:36:14.404Z,100395.13
2023-02-25T19:39:01.192Z,100397.84
2023-02-25T19:41:48.031Z,100410.81
2023-02-25T19:44:34.868Z,100403.81
2023-02-25T19:47:22.956Z,100414.31
2023-02-25T19:50:11.716Z,100413.56
2023-02-25T19:52:58.537Z,100423.19
2023-02-25T19:55:45.413Z,100417.13
2023-02-25T19:58:32.731Z,100428.44
2023-02-25T20:01:19.650Z,100437.00
2023-02-25T20:04:08.971Z,100445.75
2023-02-25T20:06:55.482Z,100441.31
2023-02-25T20:09:42.448Z,100450.06
2023-02-25T20:12:29.404Z,100450.84
2023-02-25T20:15:16.624Z,100452.56
2023-02-25T20:18:03.141Z,100461.25
2023-02-25T20:20:51.307Z,100455.34
2023-02-25T20:23:39.776Z,100457.03
2023-02-25T20:26:28.792Z,100466.56
2023-02-25T20:29:16.339Z,100472.03
2023-02-25T20:32:03.217Z,100475.44
2023-02-25T20:34:50.264Z,100478.13
2023-02-25T20:37:41.562Z,100489.44
2023-02-25T20:40:28.643Z,100485.06
2023-02-25T20:43:16.463Z,100492.91
2023-02-25T20:46:03.223Z,100499.03
2023-02-25T20:48:49.810Z,100497.34
2023-02-25T20:51:36.856Z,100508.69
2023-02-25T20:54:24.999Z,100505.97
2023-02-25T20:57:14.924Z,100509.44
2023-02-25T21:00:01.796Z,100512.06
2023-02-25T21:02:48.679Z,100517.94
2023-02-25T21:05:35.568Z,100527.63
2023-02-25T21:08:22.325Z,100528.59
2023-02-25T21:11:10.488Z,100535.44
2023-02-25T21:13:57.306Z,100534.59
2023-02-25T21:16:44.076Z,100539.88
2023-02-25T21:19:30.861Z,100546.94
2023-02-25T21:22:17.698Z,100556.56
2023-02-25T21:25:04.982Z,100549.53
2023-02-25T21:27:52.822Z,100558.94
2023-02-25T21:30:39.737Z,100557.22
2023-02-25T21:33:26.516Z,100563.31
2023-02-25T21:36:13.558Z,100564.28
2023-02-25T21:38:59.908Z,100568.59
2023-02-25T21:41:46.641Z,100566.81
2023-02-25T21:44:34.655Z,100573.75
2023-02-25T21:47:21.629Z,100572.00
2023-02-25T21:50:09.668Z,100580.97
2023-02-25T21:52:56.564Z,100576.59
2023-02-25T21:55:43.440Z,100573.97
2023-02-25T21:58:30.379Z,100578.47
2023-02-25T22:01:21.437Z,100588.06
2023-02-25T22:04:10.118Z,100588.94
2023-02-25T22:06:56.699Z,100589.75
2023-02-25T22:09:43.441Z,100588.00
2023-02-25T22:12:30.547Z,100592.31
2023-02-25T22:15:17.257Z,100602.06
2023-02-25T22:18:05.809Z,100598.50
2023-02-25T22:20:53.343Z,100607.22
2023-02-25T22:23:40.870Z,100601.06
2023-02-25T22:26:30.093Z,100610.59
2023-02-25T22:29:17.194Z,100611.59
2023-02-25T22:32:03.927Z,100612.38
2023-02-25T22:34:51.898Z,100616.66
2023-02-25T22:37:38.816Z,100616.75
2023-02-25T22:40:25.664Z,100622.91
2023-02-25T22:43:12.346Z,100627.31
2023-02-25T22:46:11.960Z,100635.06
2023-02-25T22:49:00.276Z,100641.09
2023-02-25T22:51:48.650Z,100638.63
2023-02-25T22:54:35.240Z,100641.22
2023-02-25T22:57:22.286Z,100651.59
2023-02-25T23:00:17.132Z,100651.56
2023-02-25T23:03:04.106Z,100658.53
2023-02-25T23:05:54.315Z,100660.25
2023-02-25T23:08:44.526Z,100669.09
2023-02-25T23:11:34.890Z,100672.63
2023-02-25T23:14:22.162Z,100668.13
2023-02-25T23:17:13.749Z,100672.56
2023-02-25T23:20:10.530Z,100669.84
2023-02-25T23:22:57.414Z,100677.72
2023-02-25T23:25:51.630Z,100643.00
2023-02-25T23:28:41.469Z,100669.09
2023-02-25T23:31:32.711Z,100630.81
2023-02-25T23:34:28.167Z,100691.91
2023-02-25T23:37:15.315Z,100688.41
2023-02-25T23:40:05.805Z,100664.84
2023-02-25T23:42:54.630Z,100698.81
2023-02-25T23:45:43.881Z,100707.56
2023-02-25T23:48:32.806Z,100706.72
2023-02-25T23:51:19.518Z,100711.09
2023-02-25T23:54:07.342Z,100715.44
2023-02-25T23:56:54.094Z,100717.19
2023-02-25T23:59:42.660Z,100732.84
